Madawaska, ME

11:12 PM EST on February 05, 2016 (GMT -0500)
W1AYX | | Change Station
CLOSE
Current Station
Personal Weather Station
Location: Madawaska, ME
Elevation: 545 ft
Nearby Weather Stations

Elev 545 ft 47.35 °N, 68.28 °W | Updated 15 seconds ago

Clear
Clear
10.9 °F
Feels Like 3 °F
N
4.2
Wind Variable Wind from WSW
Gusts 4.9 mph

Today
High -- | Low -- °F
--% Chance of Precip.
Yesterday
High -- | Low -- °F
Precip. -- in
Pressure 30.05 in
Visibility 10.0 miles
Clouds Clear
Windchill 3 °F
Dew Point 1 °F
Humidity 63%
Rainfall 0.00 in
Snow Depth Not available.
6:54 AM 4:40 PM
Waning Crescent, 8% visible
METAR KFVE 060353Z AUTO 31011KT 10SM CLR M13/M16 A3000 RMK AO2 UPB04E06SNE04 SLP176 P0000 T11281156
Pressure 30.05 in
Visibility 10.0 miles
Clouds Clear
Windchill 3 °F
Dew Point 1 °F
Humidity 63%
Rainfall 0.00 in
Snow Depth Not available.
6:54 AM 4:40 PM
Waning Crescent, 8% visible
METAR KFVE 060353Z AUTO 31011KT 10SM CLR M13/M16 A3000 RMK AO2 UPB04E06SNE04 SLP176 P0000 T11281156

10-Day Weather Forecast

Almanac

Astronomy

Feb. 05, 2016 Rise Set
Actual Time
Civil Twilight
Nautical Twilight
Astronomical Twilight
Moon
Length of Visible Light
Length of Day
Tomorrow will be .
, % of the Moon is Illuminated

Today's Extremes

State Highs State Lows

Community

WunderPhotos

Upload Photos

1,890,917 photos uploaded!

WunderBlog® & News

Nearby

Air Quality

  Air Quality AQ Index Pollutant
Not available.

Snow Depth

Station Depth Elevation

Earthquake Activity

City Distance Mag. Time & Date
Minimum magnitude displayed is 2.5.

Coastal Water Temperatures

Place Temperature

Stations

Nearby Weather Stations

Station Location Temp. Windchill Dew Point Humidity Wind Precip. Elev Updated Type
                   

Watches & Warnings

There are currently no watches in effect.